sensor_id;sensor_type;location;lat;lon;timestamp;temperature;humidity
14775;DHT22;7479;47.042;15.160;2022-09-01T05:49:29;16.70;99.90
14775;DHT22;7479;47.042;15.160;2022-09-01T05:54:28;16.60;99.90
14775;DHT22;7479;47.042;15.160;2022-09-01T05:59:21;16.70;99.90
14775;DHT22;7479;47.042;15.160;2022-09-01T06:17:29;17.10;99.90
14775;DHT22;7479;47.042;15.160;2022-09-01T06:22:28;17.40;99.90
14775;DHT22;7479;47.042;15.160;2022-09-01T06:27:22;17.60;99.90
14775;DHT22;7479;47.042;15.160;2022-09-01T06:32:16;18.10;99.90
14775;DHT22;7479;47.042;15.160;2022-09-01T06:37:12;18.30;99.90
14775;DHT22;7479;47.042;15.160;2022-09-01T06:42:12;18.40;99.90
14775;DHT22;7479;47.042;15.160;2022-09-01T07:01:33;18.10;99.90
14775;DHT22;7479;47.042;15.160;2022-09-01T07:06:27;18.10;99.90
14775;DHT22;7479;47.042;15.160;2022-09-01T07:11:41;18.00;99.90
14775;DHT22;7479;47.042;15.160;2022-09-01T07:16:58;18.00;99.90
14775;DHT22;7479;47.042;15.160;2022-09-01T07:22:12;18.10;99.90
14775;DHT22;7479;47.042;15.160;2022-09-01T07:36:48;18.80;99.90
14775;DHT22;7479;47.042;15.160;2022-09-01T07:42:04;19.00;99.90
14775;DHT22;7479;47.042;15.160;2022-09-01T07:47:40;19.30;99.90
14775;DHT22;7479;47.042;15.160;2022-09-01T07:52:51;19.90;99.90
14775;DHT22;7479;47.042;15.160;2022-09-01T07:57:46;20.20;99.90
14775;DHT22;7479;47.042;15.160;2022-09-01T08:02:42;20.20;99.90
14775;DHT22;7479;47.042;15.160;2022-09-01T08:07:39;20.10;99.90
14775;DHT22;7479;47.042;15.160;2022-09-01T08:12:56;19.80;99.90
14775;DHT22;7479;47.042;15.160;2022-09-01T08:17:51;19.70;99.90
14775;DHT22;7479;47.042;15.160;2022-09-01T08:22:48;19.90;99.90
14775;DHT22;7479;47.042;15.160;2022-09-01T08:27:48;20.00;99.90
14775;DHT22;7479;47.042;15.160;2022-09-01T08:32:52;20.20;99.90
14775;DHT22;7479;47.042;15.160;2022-09-01T08:37:47;20.30;99.90
14775;DHT22;7479;47.042;15.160;2022-09-01T08:42:49;20.40;99.90
14775;DHT22;7479;47.042;15.160;2022-09-01T08:47:46;20.30;99.90
14775;DHT22;7479;47.042;15.160;2022-09-01T08:53:06;20.30;99.90
14775;DHT22;7479;47.042;15.160;2022-09-01T08:58:03;20.80;99.90
14775;DHT22;7479;47.042;15.160;2022-09-01T09:03:20;21.10;99.90
14775;DHT22;7479;47.042;15.160;2022-09-01T09:08:28;21.50;99.90
14775;DHT22;7479;47.042;15.160;2022-09-01T09:13:38;21.60;99.90
14775;DHT22;7479;47.042;15.160;2022-09-01T09:18:41;21.50;99.90
14775;DHT22;7479;47.042;15.160;2022-09-01T09:23:57;21.90;99.90
14775;DHT22;7479;47.042;15.160;2022-09-01T09:28:51;21.90;99.90
14775;DHT22;7479;47.042;15.160;2022-09-01T09:33:46;22.20;99.90
14775;DHT22;7479;47.042;15.160;2022-09-01T09:38:44;22.60;99.90
14775;DHT22;7479;47.042;15.160;2022-09-01T09:43:43;22.50;99.90
14775;DHT22;7479;47.042;15.160;2022-09-01T09:48:39;22.60;99.90
14775;DHT22;7479;47.042;15.160;2022-09-01T09:53:32;23.10;98.30
14775;DHT22;7479;47.042;15.160;2022-09-01T09:58:37;22.90;96.50
14775;DHT22;7479;47.042;15.160;2022-09-01T10:03:39;22.80;96.60
14775;DHT22;7479;47.042;15.160;2022-09-01T10:08:39;23.10;95.30
14775;DHT22;7479;47.042;15.160;2022-09-01T10:13:38;23.80;93.30
14775;DHT22;7479;47.042;15.160;2022-09-01T10:18:38;23.90;92.80
14775;DHT22;7479;47.042;15.160;2022-09-01T10:23:34;23.80;92.50
14775;DHT22;7479;47.042;15.160;2022-09-01T10:28:31;23.90;90.30
14775;DHT22;7479;47.042;15.160;2022-09-01T10:33:27;23.80;92.00
14775;DHT22;7479;47.042;15.160;2022-09-01T10:38:25;23.90;91.10
14775;DHT22;7479;47.042;15.160;2022-09-01T10:43:40;23.80;89.10
14775;DHT22;7479;47.042;15.160;2022-09-01T10:48:34;23.70;88.30
14775;DHT22;7479;47.042;15.160;2022-09-01T10:53:45;23.40;89.60
14775;DHT22;7479;47.042;15.160;2022-09-01T10:58:47;23.10;89.70
14775;DHT22;7479;47.042;15.160;2022-09-01T11:04:02;23.00;90.20
14775;DHT22;7479;47.042;15.160;2022-09-01T11:08:59;23.00;89.10
14775;DHT22;7479;47.042;15.160;2022-09-01T11:13:57;22.90;90.20
14775;DHT22;7479;47.042;15.160;2022-09-01T11:18:51;22.90;87.90
14775;DHT22;7479;47.042;15.160;2022-09-01T11:23:45;22.80;92.80
14775;DHT22;7479;47.042;15.160;2022-09-01T11:28:43;22.30;94.20
14775;DHT22;7479;47.042;15.160;2022-09-01T11:33:43;21.90;95.40
14775;DHT22;7479;47.042;15.160;2022-09-01T11:38:45;21.40;95.60
14775;DHT22;7479;47.042;15.160;2022-09-01T11:43:40;21.00;96.00
14775;DHT22;7479;47.042;15.160;2022-09-01T11:48:36;21.00;96.80
14775;DHT22;7479;47.042;15.160;2022-09-01T11:53:29;21.00;95.40
14775;DHT22;7479;47.042;15.160;2022-09-01T11:58:32;20.80;94.00
14775;DHT22;7479;47.042;15.160;2022-09-01T12:03:30;20.60;95.10
14775;DHT22;7479;47.042;15.160;2022-09-01T12:08:27;20.50;96.70
14775;DHT22;7479;47.042;15.160;2022-09-01T12:13:23;20.40;98.60
14775;DHT22;7479;47.042;15.160;2022-09-01T12:18:19;20.20;98.70
14775;DHT22;7479;47.042;15.160;2022-09-01T12:23:18;20.20;99.00
14775;DHT22;7479;47.042;15.160;2022-09-01T12:28:13;20.30;99.10
14775;DHT22;7479;47.042;15.160;2022-09-01T12:33:10;20.40;98.40
14775;DHT22;7479;47.042;15.160;2022-09-01T12:38:28;20.40;98.90
14775;DHT22;7479;47.042;15.160;2022-09-01T12:43:34;20.50;99.40
14775;DHT22;7479;47.042;15.160;2022-09-01T12:48:31;20.50;99.50
14775;DHT22;7479;47.042;15.160;2022-09-01T12:53:27;20.40;99.90
14775;DHT22;7479;47.042;15.160;2022-09-01T12:58:25;20.20;99.90
14775;DHT22;7479;47.042;15.160;2022-09-01T13:03:21;20.20;99.90
14775;DHT22;7479;47.042;15.160;2022-09-01T13:08:17;20.20;99.90
14775;DHT22;7479;47.042;15.160;2022-09-01T13:13:11;20.30;99.40
14775;DHT22;7479;47.042;15.160;2022-09-01T13:18:05;20.30;99.80
14775;DHT22;7479;47.042;15.160;2022-09-01T13:23:00;20.30;99.90
14775;DHT22;7479;47.042;15.160;2022-09-01T13:27:54;20.30;99.50
14775;DHT22;7479;47.042;15.160;2022-09-01T13:32:49;20.30;99.70
14775;DHT22;7479;47.042;15.160;2022-09-01T13:38:04;20.20;99.50
14775;DHT22;7479;47.042;15.160;2022-09-01T13:42:57;20.20;99.90
14775;DHT22;7479;47.042;15.160;2022-09-01T13:47:52;20.00;99.90
14775;DHT22;7479;47.042;15.160;2022-09-01T13:53:07;20.00;99.90
14775;DHT22;7479;47.042;15.160;2022-09-01T13:58:00;20.00;99.90
14775;DHT22;7479;47.042;15.160;2022-09-01T14:02:56;20.10;99.90
14775;DHT22;7479;47.042;15.160;2022-09-01T14:07:51;20.10;99.90
14775;DHT22;7479;47.042;15.160;2022-09-01T14:12:46;20.10;99.90
14775;DHT22;7479;47.042;15.160;2022-09-01T14:17:41;20.10;99.90
14775;DHT22;7479;47.042;15.160;2022-09-01T14:22:34;20.10;99.90
14775;DHT22;7479;47.042;15.160;2022-09-01T14:27:29;20.10;99.50
14775;DHT22;7479;47.042;15.160;2022-09-01T14:32:24;20.20;99.90
14775;DHT22;7479;47.042;15.160;2022-09-01T14:37:19;20.20;98.60
14775;DHT22;7479;47.042;15.160;2022-09-01T14:42:13;20.20;98.80
14775;DHT22;7479;47.042;15.160;2022-09-01T14:47:07;20.20;98.10
14775;DHT22;7479;47.042;15.160;2022-09-01T14:52:10;20.20;98.30
14775;DHT22;7479;47.042;15.160;2022-09-01T14:57:05;20.30;98.00
14775;DHT22;7479;47.042;15.160;2022-09-01T15:02:19;20.40;98.50
14775;DHT22;7479;47.042;15.160;2022-09-01T15:07:14;20.40;98.50
14775;DHT22;7479;47.042;15.160;2022-09-01T15:12:08;20.60;98.90
14775;DHT22;7479;47.042;15.160;2022-09-01T15:17:01;20.60;98.70
14775;DHT22;7479;47.042;15.160;2022-09-01T15:21:55;20.70;99.10
14775;DHT22;7479;47.042;15.160;2022-09-01T15:26:50;20.70;98.70
14775;DHT22;7479;47.042;15.160;2022-09-01T15:31:44;20.70;99.00
14775;DHT22;7479;47.042;15.160;2022-09-01T15:36:38;20.70;99.30
14775;DHT22;7479;47.042;15.160;2022-09-01T15:41:33;20.70;99.00
14775;DHT22;7479;47.042;15.160;2022-09-01T15:46:28;20.70;99.20
14775;DHT22;7479;47.042;15.160;2022-09-01T15:51:31;20.70;99.90
14775;DHT22;7479;47.042;15.160;2022-09-01T15:56:25;20.60;99.90
14775;DHT22;7479;47.042;15.160;2022-09-01T16:01:19;20.50;99.90
14775;DHT22;7479;47.042;15.160;2022-09-01T16:06:15;20.50;99.90
14775;DHT22;7479;47.042;15.160;2022-09-01T16:11:09;20.60;99.10
14775;DHT22;7479;47.042;15.160;2022-09-01T16:16:12;20.60;99.90
14775;DHT22;7479;47.042;15.160;2022-09-01T16:21:17;20.40;99.90
14775;DHT22;7479;47.042;15.160;2022-09-01T16:26:14;20.40;99.90
14775;DHT22;7479;47.042;15.160;2022-09-01T16:31:11;20.20;99.90
14775;DHT22;7479;47.042;15.160;2022-09-01T16:36:19;20.20;99.90
14775;DHT22;7479;47.042;15.160;2022-09-01T16:41:32;20.10;99.90
14775;DHT22;7479;47.042;15.160;2022-09-01T16:46:35;20.10;99.90
14775;DHT22;7479;47.042;15.160;2022-09-01T16:51:41;20.00;97.70
14775;DHT22;7479;47.042;15.160;2022-09-01T16:56:48;20.00;98.60
